createdAt,value
2023-05-03T00:00:47.255Z,99248.09
2023-05-03T00:05:49.913Z,99252.63
2023-05-03T00:10:51.669Z,99254.88
2023-05-03T00:15:53.423Z,99249.00
2023-05-03T00:20:55.369Z,99249.28
2023-05-03T00:25:58.754Z,99256.75
2023-05-03T00:31:08.737Z,99239.50
2023-05-03T00:36:13.034Z,99241.13
2023-05-03T00:41:14.854Z,99243.06
2023-05-03T00:46:18.112Z,99251.97
2023-05-03T00:51:21.893Z,99243.34
2023-05-03T00:56:23.890Z,99242.69
2023-05-03T01:01:26.485Z,99248.50
2023-05-03T01:06:48.434Z,99250.44
2023-05-03T01:12:15.119Z,99251.84
2023-05-03T01:17:26.034Z,99241.72
2023-05-03T01:22:34.245Z,99237.50
2023-05-03T01:27:37.273Z,99245.75
2023-05-03T01:32:51.419Z,99243.44
2023-05-03T01:37:57.614Z,99245.00
2023-05-03T01:42:59.832Z,99242.53
2023-05-03T01:48:01.834Z,99236.97
2023-05-03T01:53:03.676Z,99249.44
2023-05-03T01:58:06.320Z,99242.38
2023-05-03T02:03:08.184Z,99240.22
2023-05-03T02:08:10.079Z,99240.50
2023-05-03T02:13:11.923Z,99242.69
2023-05-03T02:18:14.510Z,99234.38
2023-05-03T02:23:16.560Z,99235.78
2023-05-03T02:28:18.393Z,99237.16
2023-05-03T02:33:20.558Z,99232.94
2023-05-03T02:38:23.622Z,99240.72
2023-05-03T02:43:26.413Z,99240.88
2023-05-03T02:48:28.401Z,99249.63
2023-05-03T02:53:31.530Z,99249.09
2023-05-03T02:58:37.254Z,99255.41
2023-05-03T03:03:40.329Z,99257.47
2023-05-03T03:08:43.687Z,99261.88
2023-05-03T03:13:45.803Z,99260.22
2023-05-03T03:18:47.569Z,99275.00
2023-05-03T03:23:50.315Z,99282.13
2023-05-03T03:28:52.146Z,99278.69
2023-05-03T03:33:56.612Z,99279.94
2023-05-03T03:39:02.404Z,99281.47
2023-05-03T03:44:04.550Z,99284.66
2023-05-03T03:49:06.423Z,99285.88
2023-05-03T03:54:08.298Z,99294.66
2023-05-03T03:59:13.577Z,99296.56
2023-05-03T04:04:16.278Z,99301.09
2023-05-03T04:09:19.844Z,99309.41
2023-05-03T04:14:21.905Z,99316.53
2023-05-03T04:19:26.262Z,99322.53
2023-05-03T04:24:30.907Z,99340.59
2023-05-03T04:29:33.595Z,99337.31
2023-05-03T04:34:36.078Z,99349.06
2023-05-03T04:39:39.711Z,99352.09
2023-05-03T04:44:44.945Z,99348.25
2023-05-03T04:49:48.376Z,99362.06
2023-05-03T04:54:50.225Z,99364.53
2023-05-03T04:59:54.253Z,99362.47
2023-05-03T05:04:56.792Z,99362.19
2023-05-03T05:09:59.101Z,99368.75
2023-05-03T05:15:01.238Z,99368.75
2023-05-03T05:20:07.172Z,99379.28
2023-05-03T05:25:10.177Z,99383.50
2023-05-03T05:30:13.023Z,99389.53
2023-05-03T05:35:19.315Z,99392.28
2023-05-03T05:40:21.928Z,99396.66
2023-05-03T05:45:29.595Z,99398.41
2023-05-03T05:50:32.838Z,99403.47
2023-05-03T05:55:40.358Z,99405.25
2023-05-03T06:00:43.253Z,99409.22
2023-05-03T06:05:45.326Z,99401.81
2023-05-03T06:10:47.454Z,99413.44
2023-05-03T06:15:49.624Z,99415.59
2023-05-03T06:20:51.532Z,99419.28
2023-05-03T06:25:55.511Z,99410.38
2023-05-03T06:30:58.526Z,99419.25
2023-05-03T06:36:02.611Z,99409.13
2023-05-03T06:41:04.587Z,99415.69
2023-05-03T06:46:06.841Z,99413.78
2023-05-03T06:51:08.902Z,99413.03
2023-05-03T06:56:11.393Z,99419.28
2023-05-03T07:01:13.414Z,99414.63
2023-05-03T07:06:16.941Z,99423.97
2023-05-03T07:11:24.076Z,99413.06
2023-05-03T07:16:26.325Z,99410.34
2023-05-03T07:21:29.500Z,99403.13
2023-05-03T07:26:31.518Z,99405.75
2023-05-03T07:31:33.557Z,99405.31
2023-05-03T07:36:35.602Z,99403.28
2023-05-03T07:41:37.726Z,99408.19
2023-05-03T07:46:39.692Z,99399.34
2023-05-03T07:51:41.970Z,99405.88
2023-05-03T07:56:44.057Z,99397.19
2023-05-03T08:01:45.937Z,99407.69
2023-05-03T08:06:48.090Z,99397.63
2023-05-03T08:11:50.102Z,99397.16
2023-05-03T08:16:51.971Z,99396.91
2023-05-03T08:21:54.704Z,99399.13
2023-05-03T08:26:56.690Z,99400.63
2023-05-03T08:31:59.239Z,99390.81
2023-05-03T08:37:01.465Z,99395.31
2023-05-03T08:42:07.698Z,99401.06
2023-05-03T08:47:09.638Z,99401.91
2023-05-03T08:52:14.415Z,99401.38
2023-05-03T08:57:18.013Z,99389.25
2023-05-03T09:02:21.712Z,99400.91
2023-05-03T09:07:23.952Z,99395.09
2023-05-03T09:12:41.566Z,99397.31
2023-05-03T09:17:43.723Z,99400.75
2023-05-03T09:22:54.483Z,99392.53
2023-05-03T09:28:05.443Z,99393.63
2023-05-03T09:33:08.262Z,99394.31
2023-05-03T09:38:30.518Z,99394.00
2023-05-03T09:43:35.232Z,99392.81
2023-05-03T09:48:38.341Z,99382.41
2023-05-03T09:53:41.957Z,99382.75
2023-05-03T09:58:44.193Z,99379.50
2023-05-03T10:03:51.213Z,99385.03
2023-05-03T10:09:21.680Z,99376.84
2023-05-03T10:14:24.484Z,99377.81
2023-05-03T10:19:32.486Z,99363.63
2023-05-03T10:24:36.292Z,99357.25
2023-05-03T10:29:46.198Z,99357.75
2023-05-03T10:34:48.042Z,99364.13
2023-05-03T10:39:53.001Z,99350.91
2023-05-03T10:44:55.517Z,99356.28
2023-05-03T10:50:15.380Z,99351.41
2023-05-03T10:55:24.739Z,99358.91
2023-05-03T11:00:32.710Z,99353.19
2023-05-03T11:05:34.930Z,99352.69
2023-05-03T11:10:36.878Z,99350.41
2023-05-03T11:15:39.323Z,99353.69
2023-05-03T11:20:41.159Z,99343.53
2023-05-03T11:25:43.040Z,99340.59
2023-05-03T11:30:47.409Z,99341.59
2023-05-03T11:35:49.378Z,99340.28
2023-05-03T11:40:51.845Z,99337.97
2023-05-03T11:45:58.456Z,99339.28
2023-05-03T11:51:06.865Z,99332.09
2023-05-03T11:56:14.346Z,99342.56
2023-05-03T12:01:16.675Z,99342.06
2023-05-03T12:06:19.265Z,99354.34
2023-05-03T12:11:23.028Z,99339.13
2023-05-03T12:16:27.965Z,99335.06
2023-05-03T12:22:03.985Z,99328.19
2023-05-03T12:27:09.463Z,99335.69
2023-05-03T12:32:12.279Z,99329.16
2023-05-03T12:37:17.196Z,99324.56
2023-05-03T12:42:22.017Z,99323.75
2023-05-03T12:47:28.785Z,99322.28
2023-05-03T12:52:37.720Z,99314.09
2023-05-03T12:57:42.837Z,99290.25
2023-05-03T13:07:56.564Z,99295.47
2023-05-03T13:12:58.972Z,99285.47
2023-05-03T13:18:03.345Z,99284.84
2023-05-03T13:23:05.530Z,99293.50
2023-05-03T13:28:07.324Z,99292.03
2023-05-03T13:33:09.353Z,99282.41
2023-05-03T13:38:11.179Z,99280.09
2023-05-03T13:43:12.964Z,99285.47
2023-05-03T13:48:19.203Z,99279.22
2023-05-03T13:53:21.497Z,99265.16
2023-05-03T13:58:23.387Z,99259.78
2023-05-03T14:03:25.497Z,99260.06
2023-05-03T14:08:27.610Z,99255.94
2023-05-03T14:13:34.834Z,99260.34
2023-05-03T14:18:42.727Z,99256.41
2023-05-03T14:23:49.924Z,99249.03
2023-05-03T14:28:51.864Z,99252.44
2023-05-03T14:33:53.958Z,99244.53
2023-05-03T14:38:55.905Z,99250.88
2023-05-03T14:43:57.871Z,99236.28
2023-05-03T14:49:01.726Z,99238.50
2023-05-03T14:54:04.156Z,99240.72
2023-05-03T14:59:07.520Z,99243.63
2023-05-03T15:04:10.832Z,99242.06
2023-05-03T15:09:13.304Z,99239.78
2023-05-03T15:14:15.144Z,99248.22
2023-05-03T15:19:17.022Z,99236.53
2023-05-03T15:24:19.042Z,99238.44
2023-05-03T15:29:21.758Z,99234.66
2023-05-03T15:34:23.666Z,99236.91
2023-05-03T15:39:25.615Z,99222.91
2023-05-03T15:44:27.460Z,99227.38
2023-05-03T15:49:29.481Z,99229.19
2023-05-03T15:54:31.326Z,99223.66
2023-05-03T15:59:33.176Z,99219.75
2023-05-03T16:04:37.412Z,99219.06
2023-05-03T16:09:39.321Z,99218.78
2023-05-03T16:14:41.382Z,99213.00
2023-05-03T16:19:44.082Z,99206.44
2023-05-03T16:24:47.284Z,99207.09
2023-05-03T16:29:49.300Z,99194.16
2023-05-03T16:34:52.050Z,99188.47
2023-05-03T16:39:53.877Z,99188.19
2023-05-03T16:44:55.902Z,99175.31
2023-05-03T16:49:57.789Z,99174.25
2023-05-03T16:54:59.601Z,99179.84
2023-05-03T17:00:09.787Z,99170.72
2023-05-03T17:05:13.176Z,99174.72
2023-05-03T17:10:15.074Z,99177.72
2023-05-03T17:15:17.122Z,99184.78
2023-05-03T17:20:19.466Z,99176.97
2023-05-03T17:25:21.516Z,99179.44
2023-05-03T17:30:23.863Z,99179.31
2023-05-03T17:35:26.117Z,99178.19
2023-05-03T17:40:27.926Z,99178.53
2023-05-03T17:45:29.738Z,99180.84
2023-05-03T17:50:31.455Z,99177.78
2023-05-03T17:55:40.432Z,99184.47
2023-05-03T18:00:43.250Z,99188.41
2023-05-03T18:05:45.763Z,99188.09
2023-05-03T18:10:47.618Z,99183.38
2023-05-03T18:15:50.102Z,99193.84
2023-05-03T18:21:02.318Z,99205.78
2023-05-03T18:26:04.247Z,99205.13
2023-05-03T18:31:07.271Z,99207.72
2023-05-03T18:36:11.578Z,99210.63
2023-05-03T18:41:14.980Z,99204.75
2023-05-03T18:46:18.805Z,99216.66
2023-05-03T18:51:20.789Z,99218.59
2023-05-03T18:56:22.595Z,99214.19
2023-05-03T19:01:26.576Z,99218.25
2023-05-03T19:06:28.875Z,99225.22
2023-05-03T19:11:30.852Z,99227.81
2023-05-03T19:16:33.495Z,99242.13
2023-05-03T19:21:37.851Z,99233.16
2023-05-03T19:26:39.930Z,99234.59
2023-05-03T19:31:41.846Z,99236.84
2023-05-03T19:36:43.640Z,99223.47
2023-05-03T19:41:47.246Z,99223.13
2023-05-03T19:46:50.010Z,99226.34
2023-05-03T19:51:54.040Z,99224.22
2023-05-03T19:56:55.801Z,99224.00
2023-05-03T20:01:57.902Z,99233.25
2023-05-03T20:06:59.828Z,99232.06
2023-05-03T20:12:02.289Z,99237.91
2023-05-03T20:17:04.388Z,99237.53
2023-05-03T20:22:06.580Z,99235.53
2023-05-03T20:27:08.446Z,99228.19
2023-05-03T20:32:10.294Z,99230.44
2023-05-03T20:37:12.331Z,99228.94
2023-05-03T20:42:14.193Z,99226.97
2023-05-03T20:47:16.071Z,99223.03
2023-05-03T20:52:17.926Z,99224.28
2023-05-03T20:57:19.790Z,99222.16
2023-05-03T21:02:21.564Z,99229.59
2023-05-03T21:07:23.448Z,99223.88
2023-05-03T21:12:25.947Z,99216.50
2023-05-03T21:17:27.812Z,99218.75
2023-05-03T21:22:30.142Z,99212.34
2023-05-03T21:27:32.161Z,99215.25
2023-05-03T21:32:34.192Z,99201.88
2023-05-03T21:37:36.060Z,99208.19
2023-05-03T21:42:37.911Z,99204.41
2023-05-03T21:47:39.805Z,99204.19
2023-05-03T21:52:42.136Z,99204.50
2023-05-03T21:57:44.140Z,99214.66
2023-05-03T22:02:46.059Z,99208.72
2023-05-03T22:07:48.652Z,99209.97
2023-05-03T22:12:50.581Z,99209.31
2023-05-03T22:17:52.454Z,99210.41
2023-05-03T22:22:54.319Z,99215.34
2023-05-03T22:27:56.126Z,99204.28
2023-05-03T22:32:57.974Z,99202.66
2023-05-03T22:38:00.186Z,99203.91
2023-05-03T22:43:02.041Z,99202.84
2023-05-03T22:48:04.629Z,99197.28
2023-05-03T22:53:06.528Z,99190.88
2023-05-03T22:58:08.543Z,99185.16
2023-05-03T23:03:10.941Z,99192.56
2023-05-03T23:08:14.239Z,99189.56
2023-05-03T23:13:16.767Z,99196.97
2023-05-03T23:18:18.962Z,99188.94
2023-05-03T23:23:20.835Z,99187.47
2023-05-03T23:28:22.874Z,99184.31
2023-05-03T23:33:25.147Z,99185.44
2023-05-03T23:38:27.767Z,99183.41
2023-05-03T23:43:29.538Z,99176.03
2023-05-03T23:48:31.748Z,99174.00
2023-05-03T23:53:33.493Z,99168.44
2023-05-03T23:58:35.377Z,99165.16
